Time;durP1;ratioP1;P1;durP2;ratioP2;P2;SDS_P1;SDS_P2;PMS_P1;PMS_P2;Temp;Humidity;BMP_temperature;BMP_pressure;BME280_temperature;BME280_humidity;BME280_pressure;Samples;Min_cycle;Max_cycle;Signal;HPM_P1;HPM_P2
2021/12/12 00:01:00;;;;;;;;;;;1.00;99.90;;;;;;5033642;28;20379;-66
2021/12/12 00:03:38;;;;;;;;;;;1.10;99.90;;;;;;5033709;28;19909;-66
2021/12/12 00:06:06;;;;;;;;;;;1.10;99.90;;;;;;5033962;28;19963;-66
2021/12/12 00:08:32;;;;;;;;;;;1.10;99.90;;;;;;5034357;28;19908;-66
2021/12/12 00:10:59;;;;;;;;;;;1.10;99.90;;;;;;5033402;28;20396;-66
2021/12/12 00:13:28;;;;;;;;;;;1.10;99.90;;;;;;5034336;28;19951;-66
2021/12/12 00:15:54;;;;;;;;;;;1.10;99.90;;;;;;5034286;28;20402;-66
2021/12/12 00:18:19;;;;;;;;;;;1.10;99.90;;;;;;5038688;28;19908;-66
2021/12/12 00:20:45;;;;;;;;;;;1.20;99.90;;;;;;5035781;28;20273;-66
2021/12/12 00:23:11;;;;;;;;;;;1.20;99.90;;;;;;5034072;28;19909;-66
2021/12/12 00:25:38;;;;;;;;;;;1.30;99.90;;;;;;5033862;28;20336;-67
2021/12/12 00:28:04;;;;;;;;;;;1.40;99.90;;;;;;5034213;28;19912;-67
2021/12/12 00:30:30;;;;;;;;;;;1.40;99.90;;;;;;5032798;28;19996;-67
2021/12/12 00:32:55;;;;;;;;;;;1.50;99.90;;;;;;5034072;28;19936;-67
2021/12/12 00:35:21;;;;;;;;;;;1.50;99.90;;;;;;5032849;28;19909;-67
2021/12/12 00:37:49;;;;;;;;;;;1.60;99.90;;;;;;5033770;28;19917;-67
2021/12/12 00:40:28;;;;;;;;;;;1.60;99.90;;;;;;5032833;28;19959;-67
2021/12/12 00:42:55;;;;;;;;;;;1.70;99.90;;;;;;5034074;28;20355;-67
2021/12/12 00:45:21;;;;;;;;;;;1.70;99.90;;;;;;5033502;28;19908;-67
2021/12/12 00:47:47;;;;;;;;;;;1.80;99.90;;;;;;5033947;28;19905;-68
2021/12/12 00:50:15;;;;;;;;;;;1.80;99.90;;;;;;5032664;28;20371;-68
2021/12/12 00:52:42;;;;;;;;;;;1.80;99.90;;;;;;5034014;28;19905;-68
2021/12/12 00:55:07;;;;;;;;;;;1.80;99.90;;;;;;5033123;28;19916;-68
2021/12/12 00:57:33;;;;;;;;;;;1.80;99.90;;;;;;5033794;28;20365;-69
2021/12/12 00:59:59;;;;;;;;;;;1.70;99.90;;;;;;5032705;28;19916;-68
2021/12/12 01:02:26;;;;;;;;;;;1.70;99.90;;;;;;5032467;28;20478;-68
2021/12/12 01:04:54;;;;;;;;;;;1.80;99.90;;;;;;5033294;28;19913;-69
2021/12/12 01:07:22;;;;;;;;;;;1.70;99.90;;;;;;5033496;28;19905;-68
2021/12/12 01:09:50;;;;;;;;;;;1.70;99.90;;;;;;5032629;28;19909;-69
2021/12/12 01:12:18;;;;;;;;;;;1.70;99.90;;;;;;5032645;28;19905;-69
2021/12/12 01:14:46;;;;;;;;;;;1.70;99.90;;;;;;5038436;28;20315;-69
2021/12/12 01:17:13;;;;;;;;;;;1.60;99.90;;;;;;5032817;28;20373;-69
2021/12/12 01:19:41;;;;;;;;;;;1.50;99.90;;;;;;5049415;28;20003;-69
2021/12/12 01:22:09;;;;;;;;;;;1.50;99.90;;;;;;5037565;28;19944;-69
2021/12/12 01:24:37;;;;;;;;;;;1.50;99.90;;;;;;5033191;28;20284;-69
2021/12/12 01:27:04;;;;;;;;;;;1.50;99.90;;;;;;5032309;28;19932;-68
2021/12/12 01:29:30;;;;;;;;;;;1.40;99.90;;;;;;5028122;28;19913;-68
2021/12/12 01:31:56;;;;;;;;;;;1.40;99.90;;;;;;5032292;28;19996;-68
2021/12/12 01:34:25;;;;;;;;;;;1.30;99.90;;;;;;5032218;28;19919;-68
2021/12/12 01:37:09;;;;;;;;;;;1.30;99.90;;;;;;5032917;28;20357;-68
2021/12/12 01:39:39;;;;;;;;;;;1.30;99.90;;;;;;5032144;28;19940;-68
2021/12/12 01:42:08;;;;;;;;;;;1.30;99.90;;;;;;5026372;28;19936;-68
2021/12/12 01:44:48;;;;;;;;;;;1.40;99.90;;;;;;5025539;28;19909;-69
2021/12/12 01:47:16;;;;;;;;;;;1.50;99.90;;;;;;5028972;28;19905;-68
2021/12/12 01:49:44;;;;;;;;;;;1.50;99.90;;;;;;5025184;28;19969;-69
2021/12/12 01:52:11;;;;;;;;;;;1.50;99.90;;;;;;5028863;28;19905;-68
2021/12/12 01:54:43;;;;;;;;;;;1.50;99.90;;;;;;5031500;28;19909;-69
2021/12/12 01:57:10;;;;;;;;;;;1.50;99.90;;;;;;5031021;28;19931;-69
2021/12/12 01:59:36;;;;;;;;;;;1.60;99.90;;;;;;5025037;28;19913;-69
2021/12/12 02:02:14;;;;;;;;;;;1.60;99.90;;;;;;5030397;28;19913;-69
2021/12/12 02:04:44;;;;;;;;;;;1.70;99.90;;;;;;5022644;28;19916;-69
2021/12/12 02:07:10;;;;;;;;;;;1.70;99.90;;;;;;5019638;28;19928;-69
2021/12/12 02:09:36;;;;;;;;;;;1.70;99.90;;;;;;5022715;28;19905;-69
2021/12/12 02:12:03;;;;;;;;;;;1.80;99.90;;;;;;5031998;28;19916;-69
2021/12/12 02:14:31;;;;;;;;;;;1.80;99.90;;;;;;5031704;28;19916;-69
2021/12/12 02:16:58;;;;;;;;;;;1.80;99.90;;;;;;5032604;28;19912;-69
2021/12/12 02:19:31;;;;;;;;;;;1.80;99.90;;;;;;5037502;28;19913;-69
2021/12/12 02:22:05;;;;;;;;;;;1.90;99.90;;;;;;5032039;28;19913;-69
2021/12/12 02:35:30;;;;;;;;;;;2.00;99.90;;;;;;5035660;28;19967;-70
2021/12/12 02:37:57;;;;;;;;;;;2.00;99.90;;;;;;5036326;28;19905;-70
2021/12/12 02:40:33;;;;;;;;;;;2.00;99.90;;;;;;5035370;28;20011;-69
2021/12/12 02:42:59;;;;;;;;;;;2.00;99.90;;;;;;5036383;28;19913;-70
2021/12/12 02:45:27;;;;;;;;;;;2.10;99.90;;;;;;5035912;28;19909;-69
2021/12/12 02:47:58;;;;;;;;;;;2.10;99.90;;;;;;5036185;28;19905;-69
2021/12/12 02:50:29;;;;;;;;;;;2.20;99.90;;;;;;5035033;28;19908;-70
2021/12/12 02:52:59;;;;;;;;;;;2.20;99.90;;;;;;5035938;28;19913;-69
2021/12/12 02:55:29;;;;;;;;;;;2.30;99.90;;;;;;5035449;28;19987;-70
2021/12/12 02:57:56;;;;;;;;;;;2.30;99.90;;;;;;5036146;28;19905;-70
2021/12/12 03:00:23;;;;;;;;;;;2.20;99.90;;;;;;5034565;28;20003;-70
2021/12/12 03:02:56;;;;;;;;;;;2.30;99.90;;;;;;5035831;28;20006;-71
2021/12/12 03:05:21;;;;;;;;;;;2.20;99.90;;;;;;5035239;28;20245;-70
2021/12/12 03:07:47;;;;;;;;;;;2.20;99.90;;;;;;5035982;28;19913;-70
2021/12/12 03:10:15;;;;;;;;;;;2.20;99.90;;;;;;5034555;28;19963;-70
2021/12/12 03:12:41;;;;;;;;;;;2.20;99.90;;;;;;5035776;28;19905;-70
2021/12/12 03:15:13;;;;;;;;;;;2.20;99.90;;;;;;5035324;28;19909;-70
2021/12/12 03:17:38;;;;;;;;;;;2.20;99.90;;;;;;5035117;28;20348;-70
2021/12/12 03:20:11;;;;;;;;;;;2.20;99.90;;;;;;5034084;28;19920;-71
2021/12/12 03:22:36;;;;;;;;;;;2.20;99.90;;;;;;5035308;28;19975;-71
2021/12/12 03:25:02;;;;;;;;;;;2.20;99.90;;;;;;5034634;28;20352;-70
2021/12/12 03:27:28;;;;;;;;;;;2.10;99.90;;;;;;5034861;28;19931;-70
2021/12/12 03:29:53;;;;;;;;;;;2.10;99.90;;;;;;5035038;28;19989;-70
2021/12/12 03:32:20;;;;;;;;;;;2.10;99.90;;;;;;5034154;28;19908;-70
2021/12/12 03:34:47;;;;;;;;;;;2.00;99.90;;;;;;5034790;28;20379;-70
2021/12/12 03:37:16;;;;;;;;;;;2.00;99.90;;;;;;5035225;28;19909;-70
2021/12/12 03:39:43;;;;;;;;;;;2.00;99.90;;;;;;5034685;28;19971;-70
2021/12/12 03:42:11;;;;;;;;;;;2.00;99.90;;;;;;5034196;28;20286;-70
2021/12/12 03:44:38;;;;;;;;;;;2.00;99.90;;;;;;5035197;28;20276;-70
2021/12/12 03:47:06;;;;;;;;;;;2.00;99.90;;;;;;5034389;28;20276;-70
2021/12/12 03:49:33;;;;;;;;;;;2.00;99.90;;;;;;5034704;28;19909;-70
2021/12/12 03:51:59;;;;;;;;;;;2.00;99.90;;;;;;5034411;28;19909;-70
2021/12/12 03:54:25;;;;;;;;;;;2.00;99.90;;;;;;5034645;28;20004;-71
2021/12/12 03:56:50;;;;;;;;;;;2.00;99.90;;;;;;5034071;28;20279;-70
2021/12/12 03:59:16;;;;;;;;;;;2.00;99.90;;;;;;5034105;28;20303;-70
2021/12/12 04:01:48;;;;;;;;;;;2.00;99.90;;;;;;5033822;28;19966;-70
2021/12/12 04:04:19;;;;;;;;;;;2.10;99.90;;;;;;5034468;28;19916;-70
2021/12/12 04:06:45;;;;;;;;;;;2.10;99.90;;;;;;5034768;28;19996;-70
2021/12/12 04:09:11;;;;;;;;;;;2.10;99.90;;;;;;5034284;28;19957;-70
2021/12/12 04:11:39;;;;;;;;;;;2.20;99.90;;;;;;5033910;28;19904;-70
2021/12/12 04:14:06;;;;;;;;;;;2.20;99.90;;;;;;5034183;28;19915;-70
2021/12/12 04:16:32;;;;;;;;;;;2.20;99.90;;;;;;5034854;28;19963;-70
2021/12/12 04:18:58;;;;;;;;;;;2.20;99.90;;;;;;5040922;28;19944;-70
2021/12/12 04:21:25;;;;;;;;;;;2.30;99.90;;;;;;5033462;28;19913;-70
2021/12/12 04:23:51;;;;;;;;;;;2.20;99.90;;;;;;5033714;28;19912;-70
2021/12/12 04:26:20;;;;;;;;;;;2.20;99.90;;;;;;5034061;28;19917;-70
2021/12/12 04:29:15;;;;;;;;;;;2.30;99.90;;;;;;5032299;28;20368;-70
2021/12/12 04:31:43;;;;;;;;;;;2.30;99.90;;;;;;5017588;28;19987;-70
2021/12/12 04:34:09;;;;;;;;;;;2.30;99.90;;;;;;5033668;28;19916;-70
2021/12/12 04:36:36;;;;;;;;;;;2.30;99.90;;;;;;5034093;28;19905;-70
2021/12/12 04:39:16;;;;;;;;;;;2.30;99.90;;;;;;5033456;28;19916;-70
2021/12/12 04:41:42;;;;;;;;;;;2.30;99.90;;;;;;5033311;28;19909;-70
2021/12/12 04:44:07;;;;;;;;;;;2.40;99.90;;;;;;5033706;28;20007;-70
2021/12/12 04:49:54;;;;;;;;;;;2.40;99.90;;;;;;5033997;28;19984;-70
2021/12/12 04:52:11;;;;;;;;;;;2.50;99.90;;;;;;5033409;28;19912;-69
2021/12/12 04:54:38;;;;;;;;;;;2.50;99.90;;;;;;5033550;28;19909;-70
2021/12/12 04:57:10;;;;;;;;;;;2.50;99.90;;;;;;5034265;28;19996;-70
2021/12/12 04:59:46;;;;;;;;;;;2.60;99.90;;;;;;5032861;28;19912;-70
2021/12/12 05:02:21;;;;;;;;;;;2.50;99.90;;;;;;5032698;28;19992;-69
2021/12/12 05:04:46;;;;;;;;;;;2.60;99.90;;;;;;5033269;28;19949;-70
2021/12/12 05:07:15;;;;;;;;;;;2.50;99.90;;;;;;5033437;28;20341;-70
2021/12/12 05:09:56;;;;;;;;;;;2.60;99.90;;;;;;5032819;28;20319;-69
2021/12/12 05:12:31;;;;;;;;;;;2.60;99.90;;;;;;5032695;28;19963;-69
2021/12/12 05:15:01;;;;;;;;;;;2.60;99.90;;;;;;5033250;28;19963;-69
2021/12/12 05:17:43;;;;;;;;;;;2.60;99.90;;;;;;5033012;28;19909;-69
2021/12/12 05:20:14;;;;;;;;;;;2.60;99.90;;;;;;5032675;28;19959;-69
2021/12/12 05:22:49;;;;;;;;;;;2.60;99.90;;;;;;5033018;28;19909;-70
2021/12/12 05:25:17;;;;;;;;;;;2.60;99.90;;;;;;5033137;28;20368;-69
2021/12/12 05:27:43;;;;;;;;;;;2.70;99.90;;;;;;5032844;28;19916;-69
2021/12/12 05:30:16;;;;;;;;;;;2.70;99.90;;;;;;5032233;28;19909;-69
2021/12/12 05:32:42;;;;;;;;;;;2.80;99.90;;;;;;5033042;28;20007;-69
2021/12/12 05:35:09;;;;;;;;;;;2.80;99.90;;;;;;5032646;28;19959;-70
2021/12/12 05:37:36;;;;;;;;;;;2.90;99.90;;;;;;5032686;28;19911;-69
2021/12/12 05:40:05;;;;;;;;;;;3.00;99.90;;;;;;5031779;28;19912;-69
2021/12/12 05:42:30;;;;;;;;;;;3.00;99.90;;;;;;5032920;28;19917;-70
2021/12/12 05:44:58;;;;;;;;;;;3.00;99.90;;;;;;5032752;28;19909;-69
2021/12/12 05:47:23;;;;;;;;;;;3.10;99.90;;;;;;5032721;28;19992;-69
2021/12/12 05:49:49;;;;;;;;;;;3.10;99.90;;;;;;5032627;28;19947;-70
2021/12/12 05:52:16;;;;;;;;;;;3.10;99.90;;;;;;5031798;28;20328;-69
2021/12/12 05:54:44;;;;;;;;;;;3.10;99.90;;;;;;5032820;28;19909;-69
2021/12/12 05:57:10;;;;;;;;;;;3.10;99.90;;;;;;5035918;28;19916;-69
2021/12/12 05:59:37;;;;;;;;;;;3.10;99.90;;;;;;5040361;28;20003;-69
2021/12/12 06:02:05;;;;;;;;;;;3.10;99.90;;;;;;5033267;28;20380;-69
2021/12/12 06:04:30;;;;;;;;;;;3.10;99.90;;;;;;5032599;28;19911;-69
2021/12/12 06:06:56;;;;;;;;;;;3.10;99.90;;;;;;5033576;28;20303;-69
2021/12/12 06:09:22;;;;;;;;;;;3.10;99.90;;;;;;5045139;28;19915;-69
2021/12/12 06:11:49;;;;;;;;;;;3.00;99.90;;;;;;5033265;28;19912;-69
2021/12/12 06:14:15;;;;;;;;;;;3.00;99.90;;;;;;5032669;28;20287;-69
2021/12/12 06:16:41;;;;;;;;;;;3.00;99.90;;;;;;5032037;28;19909;-70
2021/12/12 06:19:15;;;;;;;;;;;3.00;99.90;;;;;;5032002;28;19913;-69
2021/12/12 06:21:41;;;;;;;;;;;3.00;99.90;;;;;;5031971;28;20416;-70
2021/12/12 06:24:07;;;;;;;;;;;3.00;99.90;;;;;;5032130;28;19915;-69
2021/12/12 06:26:33;;;;;;;;;;;2.90;99.90;;;;;;5037861;28;19931;-70
2021/12/12 06:28:59;;;;;;;;;;;3.00;99.90;;;;;;5032414;28;19909;-69
2021/12/12 06:31:24;;;;;;;;;;;3.00;99.90;;;;;;5031737;28;20421;-69
2021/12/12 06:33:50;;;;;;;;;;;3.10;99.90;;;;;;5031859;28;20340;-69
2021/12/12 06:36:16;;;;;;;;;;;3.10;99.90;;;;;;5032187;28;20375;-69
2021/12/12 06:38:44;;;;;;;;;;;3.10;99.90;;;;;;5043625;28;19912;-68
2021/12/12 06:41:10;;;;;;;;;;;3.10;99.90;;;;;;5044439;28;19909;-68
2021/12/12 06:43:36;;;;;;;;;;;3.10;99.90;;;;;;5031842;28;20283;-69
2021/12/12 06:46:03;;;;;;;;;;;3.10;99.90;;;;;;5031955;28;19945;-69
2021/12/12 06:48:28;;;;;;;;;;;3.10;99.90;;;;;;5031090;28;19909;-69
2021/12/12 06:50:55;;;;;;;;;;;3.00;99.90;;;;;;5025231;28;19928;-69
2021/12/12 06:53:21;;;;;;;;;;;3.10;99.90;;;;;;5026034;28;19905;-69
2021/12/12 06:55:48;;;;;;;;;;;3.10;99.90;;;;;;5031102;28;19947;-69
2021/12/12 06:58:14;;;;;;;;;;;3.00;99.90;;;;;;5045995;28;20279;-69
2021/12/12 07:00:41;;;;;;;;;;;3.10;99.90;;;;;;5034327;28;19909;-69
2021/12/12 07:03:07;;;;;;;;;;;3.00;99.90;;;;;;5031881;28;19920;-69
2021/12/12 07:05:33;;;;;;;;;;;3.10;99.90;;;;;;5031215;28;19909;-69
2021/12/12 07:07:59;;;;;;;;;;;3.10;99.90;;;;;;5021345;28;20005;-68
2021/12/12 07:10:25;;;;;;;;;;;3.10;99.90;;;;;;5021391;28;20008;-68
2021/12/12 07:12:55;;;;;;;;;;;3.10;99.90;;;;;;5022500;28;19931;-69
2021/12/12 07:15:22;;;;;;;;;;;3.10;99.90;;;;;;5035555;28;20370;-68
2021/12/12 07:17:48;;;;;;;;;;;3.10;99.90;;;;;;5033456;28;19960;-69
2021/12/12 07:20:13;;;;;;;;;;;3.10;99.90;;;;;;5027926;28;19952;-68
2021/12/12 07:22:39;;;;;;;;;;;3.10;99.90;;;;;;5035421;28;19909;-69
2021/12/12 07:25:06;;;;;;;;;;;3.10;99.90;;;;;;5030555;28;19966;-69
2021/12/12 07:27:32;;;;;;;;;;;3.10;99.90;;;;;;5035335;28;19909;-69
2021/12/12 07:29:57;;;;;;;;;;;3.20;99.90;;;;;;5031976;28;20040;-69
2021/12/12 07:32:24;;;;;;;;;;;3.20;99.90;;;;;;5034834;28;19924;-69
2021/12/12 07:34:51;;;;;;;;;;;3.20;99.90;;;;;;5034587;28;19921;-68
2021/12/12 07:37:18;;;;;;;;;;;3.20;99.90;;;;;;5035150;28;19911;-69
2021/12/12 07:39:44;;;;;;;;;;;3.20;99.90;;;;;;5032434;28;19917;-68
2021/12/12 07:42:10;;;;;;;;;;;3.20;99.90;;;;;;5029846;28;20003;-68
2021/12/12 07:44:37;;;;;;;;;;;3.20;99.90;;;;;;5033925;28;19992;-69
2021/12/12 07:47:04;;;;;;;;;;;3.20;99.90;;;;;;5034887;28;20360;-68
2021/12/12 07:49:31;;;;;;;;;;;3.20;99.90;;;;;;5029699;28;19909;-68
2021/12/12 07:51:57;;;;;;;;;;;3.20;99.90;;;;;;5029880;28;20387;-68
2021/12/12 07:54:23;;;;;;;;;;;3.10;99.90;;;;;;5034106;28;19909;-69
2021/12/12 07:56:48;;;;;;;;;;;3.10;99.90;;;;;;5034275;28;20333;-68
2021/12/12 07:59:15;;;;;;;;;;;3.10;99.90;;;;;;5025069;28;19972;-69
2021/12/12 08:01:42;;;;;;;;;;;3.10;99.90;;;;;;5029990;28;20344;-68
2021/12/12 08:04:08;;;;;;;;;;;3.10;99.90;;;;;;5034023;28;20409;-68
2021/12/12 08:06:34;;;;;;;;;;;3.10;99.90;;;;;;5038078;28;19909;-68
2021/12/12 08:09:01;;;;;;;;;;;3.10;99.90;;;;;;5053739;28;20351;-68
2021/12/12 08:11:27;;;;;;;;;;;3.10;99.90;;;;;;5050345;28;19909;-68
2021/12/12 08:13:54;;;;;;;;;;;3.10;99.90;;;;;;5054626;28;19904;-68
2021/12/12 08:16:20;;;;;;;;;;;3.10;99.90;;;;;;5054558;28;19908;-68
2021/12/12 08:18:45;;;;;;;;;;;3.10;99.90;;;;;;5054241;28;20340;-68
2021/12/12 08:21:11;;;;;;;;;;;3.10;99.90;;;;;;5053811;28;19931;-68
2021/12/12 08:23:37;;;;;;;;;;;3.10;99.90;;;;;;5052918;28;20278;-67
2021/12/12 08:26:03;;;;;;;;;;;3.10;99.90;;;;;;5033210;28;20359;-67
2021/12/12 08:28:30;;;;;;;;;;;3.10;99.90;;;;;;5033633;28;19909;-67
2021/12/12 08:30:55;;;;;;;;;;;3.10;99.90;;;;;;5033342;28;19917;-68
2021/12/12 08:33:21;;;;;;;;;;;3.10;99.90;;;;;;5033503;28;20317;-68
2021/12/12 08:35:47;;;;;;;;;;;3.10;99.90;;;;;;5034144;28;20005;-68
2021/12/12 08:38:12;;;;;;;;;;;3.10;99.90;;;;;;5033800;28;19927;-68
2021/12/12 08:40:50;;;;;;;;;;;3.10;99.90;;;;;;5032903;28;20058;-68
2021/12/12 08:43:16;;;;;;;;;;;3.10;99.90;;;;;;5033973;28;19913;-68
2021/12/12 08:45:47;;;;;;;;;;;3.10;99.90;;;;;;5033759;28;19905;-68
2021/12/12 08:48:15;;;;;;;;;;;3.10;99.90;;;;;;5033059;28;19909;-68
2021/12/12 08:50:41;;;;;;;;;;;3.20;99.90;;;;;;5036654;28;19909;-68
2021/12/12 08:53:07;;;;;;;;;;;3.20;99.90;;;;;;5037853;28;19912;-68
2021/12/12 08:55:36;;;;;;;;;;;3.20;99.90;;;;;;5033179;28;19991;-68
2021/12/12 08:58:14;;;;;;;;;;;3.20;99.90;;;;;;5033723;28;19909;-68
2021/12/12 09:00:46;;;;;;;;;;;3.30;99.90;;;;;;5020863;28;19971;-68
2021/12/12 09:03:13;;;;;;;;;;;3.30;99.90;;;;;;5031749;28;20327;-68
2021/12/12 09:05:41;;;;;;;;;;;3.30;99.90;;;;;;5028811;28;19909;-68
2021/12/12 09:08:10;;;;;;;;;;;3.30;99.90;;;;;;5033239;28;19959;-67
2021/12/12 09:10:38;;;;;;;;;;;3.40;99.90;;;;;;5029070;28;19916;-67
2021/12/12 09:13:06;;;;;;;;;;;3.50;99.90;;;;;;5033398;28;19952;-68
2021/12/12 09:15:38;;;;;;;;;;;3.40;99.90;;;;;;5033325;28;19928;-68
2021/12/12 09:18:17;;;;;;;;;;;3.50;99.90;;;;;;5035459;28;20398;-68
2021/12/12 09:20:50;;;;;;;;;;;3.50;99.90;;;;;;5032099;28;19921;-68
2021/12/12 09:23:32;;;;;;;;;;;3.50;99.90;;;;;;5025721;28;20419;-68
2021/12/12 09:25:59;;;;;;;;;;;3.60;99.90;;;;;;5033175;28;19920;-68
2021/12/12 09:28:25;;;;;;;;;;;3.60;99.90;;;;;;5032157;28;20272;-67
2021/12/12 09:30:51;;;;;;;;;;;3.60;99.90;;;;;;5027731;28;19910;-68
2021/12/12 09:33:20;;;;;;;;;;;3.60;99.90;;;;;;5029627;28;19912;-68
2021/12/12 09:35:49;;;;;;;;;;;3.70;99.90;;;;;;5029600;28;19913;-68
2021/12/12 09:38:16;;;;;;;;;;;3.70;99.90;;;;;;5027587;28;19962;-68
2021/12/12 09:40:53;;;;;;;;;;;3.70;99.90;;;;;;5028964;28;19975;-68
2021/12/12 09:43:37;;;;;;;;;;;3.70;99.90;;;;;;5032896;28;19905;-68
2021/12/12 09:46:06;;;;;;;;;;;3.70;99.90;;;;;;5028110;28;20352;-67
2021/12/12 09:51:20;;;;;;;;;;;3.60;99.90;;;;;;5032252;28;19912;-68
2021/12/12 09:53:58;;;;;;;;;;;3.70;99.90;;;;;;5031428;28;19909;-68
2021/12/12 09:56:39;;;;;;;;;;;3.60;99.90;;;;;;5031417;28;20007;-69
2021/12/12 09:59:05;;;;;;;;;;;3.60;99.90;;;;;;5032782;28;20039;-67
2021/12/12 10:01:37;;;;;;;;;;;3.70;99.90;;;;;;5030621;28;19948;-68
2021/12/12 10:04:06;;;;;;;;;;;3.70;99.90;;;;;;5032531;28;20007;-68
2021/12/12 10:06:42;;;;;;;;;;;3.80;99.90;;;;;;5032610;28;19995;-67
2021/12/12 10:09:10;;;;;;;;;;;3.80;99.90;;;;;;5032962;28;20023;-67
2021/12/12 10:11:54;;;;;;;;;;;3.80;99.90;;;;;;5031468;28;19944;-67
2021/12/12 10:14:25;;;;;;;;;;;3.80;99.90;;;;;;5032427;28;19910;-68
2021/12/12 10:17:03;;;;;;;;;;;3.90;99.90;;;;;;5033050;28;19909;-68
2021/12/12 10:19:30;;;;;;;;;;;3.90;99.90;;;;;;5032347;28;19913;-68
2021/12/12 10:22:05;;;;;;;;;;;4.00;99.90;;;;;;5031854;28;19944;-68
2021/12/12 10:24:35;;;;;;;;;;;4.00;99.90;;;;;;5032432;28;19996;-68
2021/12/12 10:27:07;;;;;;;;;;;4.00;99.90;;;;;;5032435;28;19905;-68
2021/12/12 10:29:37;;;;;;;;;;;4.00;99.90;;;;;;5032223;28;20348;-68
2021/12/12 10:32:06;;;;;;;;;;;4.10;99.90;;;;;;5038544;28;19909;-68
2021/12/12 10:34:35;;;;;;;;;;;4.10;99.90;;;;;;5046612;28;20368;-68
2021/12/12 10:37:06;;;;;;;;;;;4.20;99.90;;;;;;5052191;28;20402;-68
2021/12/12 10:39:34;;;;;;;;;;;4.20;99.90;;;;;;5047008;28;19925;-68
2021/12/12 10:42:02;;;;;;;;;;;4.40;99.90;;;;;;5030840;28;19913;-68
2021/12/12 10:44:34;;;;;;;;;;;4.40;99.90;;;;;;5032021;28;19943;-68
2021/12/12 10:47:15;;;;;;;;;;;4.50;99.90;;;;;;5032386;28;19958;-68
2021/12/12 10:49:41;;;;;;;;;;;4.60;99.90;;;;;;5035152;28;20382;-68
2021/12/12 10:52:30;;;;;;;;;;;4.70;99.90;;;;;;5035136;28;20007;-68
2021/12/12 10:54:58;;;;;;;;;;;4.70;99.90;;;;;;5033391;28;19916;-68
2021/12/12 10:57:24;;;;;;;;;;;4.70;99.90;;;;;;5026051;28;19909;-68
2021/12/12 11:00:09;;;;;;;;;;;4.70;99.90;;;;;;5035414;28;19964;-68
2021/12/12 11:02:39;;;;;;;;;;;4.80;99.90;;;;;;5025040;28;19937;-68
2021/12/12 11:05:10;;;;;;;;;;;4.80;99.90;;;;;;5035403;28;19970;-68
2021/12/12 11:07:37;;;;;;;;;;;4.70;99.90;;;;;;5035787;28;20690;-68
2021/12/12 11:10:03;;;;;;;;;;;4.70;99.90;;;;;;5034572;28;20005;-68
2021/12/12 11:12:34;;;;;;;;;;;4.70;99.90;;;;;;5035723;28;19967;-68
2021/12/12 11:14:59;;;;;;;;;;;4.80;99.90;;;;;;5034851;28;19909;-68
2021/12/12 11:17:37;;;;;;;;;;;4.80;99.90;;;;;;5034928;28;19962;-67
2021/12/12 11:20:12;;;;;;;;;;;4.80;99.90;;;;;;5034947;28;20304;-68
2021/12/12 11:22:42;;;;;;;;;;;4.70;99.90;;;;;;5035524;28;19912;-68
2021/12/12 11:25:17;;;;;;;;;;;4.70;99.90;;;;;;5035402;28;19917;-68
2021/12/12 11:27:45;;;;;;;;;;;4.70;99.90;;;;;;5035227;28;19920;-68
2021/12/12 11:30:18;;;;;;;;;;;4.70;99.90;;;;;;5043066;28;19909;-68
2021/12/12 11:32:44;;;;;;;;;;;4.70;99.90;;;;;;5049166;28;19905;-68
2021/12/12 11:35:12;;;;;;;;;;;4.70;99.90;;;;;;5043538;28;19905;-68
2021/12/12 11:37:37;;;;;;;;;;;4.70;99.90;;;;;;5035182;28;19951;-68
2021/12/12 11:40:26;;;;;;;;;;;4.70;99.90;;;;;;5034396;28;20327;-68
2021/12/12 11:42:56;;;;;;;;;;;4.70;99.90;;;;;;5033956;28;19920;-68
2021/12/12 11:45:27;;;;;;;;;;;4.80;99.90;;;;;;5035109;28;20390;-68
2021/12/12 11:47:58;;;;;;;;;;;4.80;99.90;;;;;;5041535;28;19909;-68
2021/12/12 11:50:38;;;;;;;;;;;4.80;99.90;;;;;;5040252;28;19909;-68
2021/12/12 11:53:07;;;;;;;;;;;4.80;99.90;;;;;;5042430;28;19983;-68
2021/12/12 11:55:35;;;;;;;;;;;4.80;99.90;;;;;;5033331;28;20314;-68
2021/12/12 11:58:20;;;;;;;;;;;4.90;99.90;;;;;;5045798;28;20258;-68
2021/12/12 12:00:49;;;;;;;;;;;4.90;99.90;;;;;;5021617;28;19913;-69
2021/12/12 12:03:24;;;;;;;;;;;5.00;99.90;;;;;;5034311;28;20292;-69
2021/12/12 12:05:52;;;;;;;;;;;5.00;99.90;;;;;;5034738;28;19912;-69
2021/12/12 12:08:20;;;;;;;;;;;5.10;99.90;;;;;;5034232;28;19905;-69
2021/12/12 12:11:04;;;;;;;;;;;5.10;99.90;;;;;;5033591;28;20284;-69
2021/12/12 12:13:39;;;;;;;;;;;5.10;99.90;;;;;;5033728;28;20003;-69
2021/12/12 12:16:16;;;;;;;;;;;5.10;99.90;;;;;;5028338;28;19916;-69
2021/12/12 12:18:59;;;;;;;;;;;5.20;99.90;;;;;;5034126;28;19916;-68
2021/12/12 12:21:29;;;;;;;;;;;5.20;99.90;;;;;;5033193;28;19920;-69
2021/12/12 12:24:13;;;;;;;;;;;5.30;99.90;;;;;;5033959;28;20376;-69
2021/12/12 12:27:03;;;;;;;;;;;5.30;99.90;;;;;;5034394;28;19905;-68
2021/12/12 12:29:32;;;;;;;;;;;5.30;99.90;;;;;;5033805;28;20402;-70
2021/12/12 12:32:03;;;;;;;;;;;5.20;99.90;;;;;;5033176;28;20402;-68
2021/12/12 12:34:44;;;;;;;;;;;5.20;99.90;;;;;;5038550;28;20550;-69
2021/12/12 12:37:28;;;;;;;;;;;5.20;99.90;;;;;;5033756;28;19909;-68
2021/12/12 12:40:22;;;;;;;;;;;5.20;99.90;;;;;;5026466;28;20291;-68
2021/12/12 12:43:06;;;;;;;;;;;5.20;99.90;;;;;;5021994;28;19905;-68
2021/12/12 12:45:50;;;;;;;;;;;5.20;99.90;;;;;;5028237;28;19917;-68
2021/12/12 12:48:16;;;;;;;;;;;5.20;99.90;;;;;;5032726;28;19951;-69
2021/12/12 12:50:47;;;;;;;;;;;5.20;99.90;;;;;;5032549;28;19944;-69
2021/12/12 12:53:51;;;;;;;;;;;5.30;99.90;;;;;;5028993;28;19905;-68
2021/12/12 12:56:35;;;;;;;;;;;5.30;99.90;;;;;;5032694;28;19935;-69
2021/12/12 12:59:16;;;;;;;;;;;5.40;99.90;;;;;;5029348;28;19943;-70
2021/12/12 13:01:59;;;;;;;;;;;5.40;99.90;;;;;;5030694;28;20352;-68
2021/12/12 13:04:26;;;;;;;;;;;5.40;99.90;;;;;;5031270;28;20356;-68
2021/12/12 13:07:01;;;;;;;;;;;5.40;99.90;;;;;;5031589;28;20145;-67
2021/12/12 13:09:38;;;;;;;;;;;5.50;99.90;;;;;;5045095;28;19908;-68
2021/12/12 13:12:17;;;;;;;;;;;5.40;99.90;;;;;;5038850;28;20475;-67
2021/12/12 13:14:47;;;;;;;;;;;5.40;99.90;;;;;;5049143;28;20436;-68
2021/12/12 13:17:32;;;;;;;;;;;5.30;99.90;;;;;;5046614;28;19905;-68
2021/12/12 13:20:16;;;;;;;;;;;5.20;99.90;;;;;;5031179;28;19995;-68
2021/12/12 13:22:43;;;;;;;;;;;5.20;99.90;;;;;;5027129;28;19912;-67
2021/12/12 13:25:14;;;;;;;;;;;5.20;99.90;;;;;;5032641;28;20002;-68
2021/12/12 13:28:01;;;;;;;;;;;5.20;99.90;;;;;;5032288;28;20348;-68
2021/12/12 13:30:47;;;;;;;;;;;5.20;99.90;;;;;;5031481;28;19920;-67
2021/12/12 13:33:19;;;;;;;;;;;5.20;99.90;;;;;;5031751;28;19916;-67
2021/12/12 13:35:51;;;;;;;;;;;5.20;99.90;;;;;;5034531;28;19913;-67
2021/12/12 13:38:30;;;;;;;;;;;5.20;99.90;;;;;;5043412;28;19909;-68
2021/12/12 13:40:57;;;;;;;;;;;5.20;99.90;;;;;;5031225;28;20046;-68
2021/12/12 13:43:42;;;;;;;;;;;5.20;99.90;;;;;;5032127;28;20426;-68
2021/12/12 13:46:26;;;;;;;;;;;5.20;99.90;;;;;;5032073;28;20367;-68
2021/12/12 13:48:52;;;;;;;;;;;5.20;99.90;;;;;;5032056;28;19916;-67
2021/12/12 13:51:22;;;;;;;;;;;5.20;99.90;;;;;;5030748;28;20050;-67
2021/12/12 13:54:07;;;;;;;;;;;5.20;99.90;;;;;;5031737;28;20062;-68
2021/12/12 13:56:33;;;;;;;;;;;5.20;99.90;;;;;;5032747;28;19912;-68
2021/12/12 13:59:21;;;;;;;;;;;5.20;99.90;;;;;;5031709;28;20225;-68
2021/12/12 14:01:54;;;;;;;;;;;5.30;99.90;;;;;;5021204;28;19913;-67
2021/12/12 14:04:24;;;;;;;;;;;5.30;99.90;;;;;;5032180;28;19916;-67
2021/12/12 14:06:50;;;;;;;;;;;5.30;99.90;;;;;;5032354;28;19905;-68
2021/12/12 14:09:17;;;;;;;;;;;5.30;99.90;;;;;;5031430;28;19909;-68
2021/12/12 14:11:45;;;;;;;;;;;5.20;99.90;;;;;;5031087;28;19999;-67
2021/12/12 14:14:16;;;;;;;;;;;5.30;99.90;;;;;;5031299;28;19909;-68
2021/12/12 14:16:45;;;;;;;;;;;5.30;99.90;;;;;;5032464;28;19909;-68
2021/12/12 14:19:13;;;;;;;;;;;5.30;99.90;;;;;;5031391;28;19935;-68
2021/12/12 14:21:39;;;;;;;;;;;5.30;99.90;;;;;;5031001;28;19967;-68
2021/12/12 14:24:05;;;;;;;;;;;5.30;99.90;;;;;;5034204;28;19909;-68
2021/12/12 14:26:32;;;;;;;;;;;5.30;99.90;;;;;;5036130;28;19955;-68
2021/12/12 14:28:59;;;;;;;;;;;5.40;99.90;;;;;;5034348;28;19960;-68
2021/12/12 14:31:37;;;;;;;;;;;5.30;99.90;;;;;;5035315;28;19920;-67
2021/12/12 14:34:05;;;;;;;;;;;5.40;99.90;;;;;;5035728;28;19920;-67
2021/12/12 14:36:32;;;;;;;;;;;5.30;99.90;;;;;;5042437;28;19908;-68
2021/12/12 14:38:58;;;;;;;;;;;5.40;99.90;;;;;;5035210;28;20386;-68
2021/12/12 14:41:32;;;;;;;;;;;5.30;99.90;;;;;;5035049;28;19951;-68
2021/12/12 14:43:58;;;;;;;;;;;5.30;99.90;;;;;;5036011;28;19905;-68
2021/12/12 14:46:34;;;;;;;;;;;5.30;99.90;;;;;;5035929;28;19909;-68
2021/12/12 14:49:05;;;;;;;;;;;5.30;99.90;;;;;;5034853;28;19909;-68
2021/12/12 14:51:33;;;;;;;;;;;5.30;99.90;;;;;;5035292;28;19908;-68
2021/12/12 14:54:09;;;;;;;;;;;5.30;99.90;;;;;;5034899;28;19917;-68
2021/12/12 14:56:45;;;;;;;;;;;5.30;99.90;;;;;;5035826;28;19959;-68
2021/12/12 14:59:12;;;;;;;;;;;5.20;99.90;;;;;;5034096;28;19913;-68
2021/12/12 15:01:43;;;;;;;;;;;5.20;99.90;;;;;;5034679;28;19905;-68
2021/12/12 15:04:13;;;;;;;;;;;5.20;99.90;;;;;;5034668;28;19947;-68